createdAt,value
2017-08-28T00:00:24.497Z,66.55
2017-08-28T00:01:04.936Z,66.65
2017-08-28T00:01:45.332Z,66.65
2017-08-28T00:02:25.698Z,66.84
2017-08-28T00:03:06.189Z,67.32
2017-08-28T00:03:46.564Z,67.22
2017-08-28T00:04:26.957Z,67.71
2017-08-28T00:05:07.399Z,67.9
2017-08-28T00:05:47.768Z,67.71
2017-08-28T00:06:28.188Z,67.8
2017-08-28T00:07:08.663Z,67.9
2017-08-28T00:07:49.099Z,68.19
2017-08-28T00:08:29.460Z,67.99
2017-08-28T00:09:09.877Z,68.09
2017-08-28T00:09:50.305Z,68.09
2017-08-28T00:10:30.681Z,68.19
2017-08-28T00:11:11.127Z,67.99
2017-08-28T00:11:51.548Z,68.19
2017-08-28T00:12:31.959Z,67.9
2017-08-28T00:13:12.342Z,67.96
2017-08-28T00:13:52.780Z,68.19
2017-08-28T00:14:33.256Z,67.99
2017-08-28T00:15:13.777Z,67.99
2017-08-28T00:15:54.225Z,68.19
2017-08-28T00:16:34.718Z,68.29
2017-08-28T00:17:15.154Z,68.09
2017-08-28T00:17:55.506Z,67.9
2017-08-28T00:18:35.948Z,67.96
2017-08-28T00:19:16.349Z,68.09
2017-08-28T00:19:56.765Z,68.29
2017-08-28T00:20:37.156Z,67.71
2017-08-28T00:21:17.589Z,68.38
2017-08-28T00:21:57.967Z,67.99
2017-08-28T00:22:38.392Z,68.09
2017-08-28T00:23:18.879Z,68.09
2017-08-28T00:23:59.218Z,67.9
2017-08-28T00:24:39.722Z,68.09
2017-08-28T00:25:20.153Z,68.38
2017-08-28T00:26:00.554Z,67.96
2017-08-28T00:26:40.934Z,67.9
2017-08-28T00:27:21.376Z,68.44
2017-08-28T00:28:01.783Z,68.54
2017-08-28T00:28:42.262Z,68.63
2017-08-28T00:29:22.585Z,68.54
2017-08-28T00:30:03.040Z,68.44
2017-08-28T00:30:43.352Z,68.63
2017-08-28T00:31:23.747Z,68.57
2017-08-28T00:32:04.201Z,68.44
2017-08-28T00:32:44.627Z,68.63
2017-08-28T00:33:25.270Z,68.44
2017-08-28T00:34:05.630Z,68.54
2017-08-28T00:34:46.025Z,68.35
2017-08-28T00:35:26.405Z,68.83
2017-08-28T00:36:06.903Z,68.83
2017-08-28T00:36:47.270Z,68.54
2017-08-28T00:37:27.716Z,68.44
2017-08-28T00:38:08.146Z,68.54
2017-08-28T00:38:48.594Z,68.63
2017-08-28T00:39:29.030Z,68.67
2017-08-28T00:40:09.542Z,68.83
2017-08-28T00:40:50.058Z,68.35
2017-08-28T00:41:30.369Z,69.4
2017-08-28T00:42:10.753Z,69.21
2017-08-28T00:42:51.230Z,69.21
2017-08-28T00:43:31.699Z,69.4
2017-08-28T00:44:12.176Z,69.44
2017-08-28T00:44:52.595Z,68.92
2017-08-28T00:45:32.992Z,69.21
2017-08-28T00:46:13.448Z,68.96
2017-08-28T00:46:53.843Z,69.4
2017-08-28T00:47:34.245Z,69.69
2017-08-28T00:48:14.619Z,69.69
2017-08-28T00:48:55.085Z,70.17
2017-08-28T00:49:35.490Z,70.27
2017-08-28T00:50:15.925Z,70.94
2017-08-28T00:50:56.330Z,70.81
2017-08-28T00:51:36.759Z,71.1
2017-08-28T00:52:17.153Z,71.39
2017-08-28T00:52:57.559Z,71.39
2017-08-28T00:53:37.939Z,71.67
2017-08-28T00:54:18.370Z,71.58
2017-08-28T00:54:58.745Z,71.48
2017-08-28T00:55:39.178Z,72.06
2017-08-28T00:56:19.508Z,72.16
2017-08-28T00:56:59.941Z,72.54
2017-08-28T00:57:40.383Z,72.44
2017-08-28T00:58:20.790Z,72.34
2017-08-28T00:59:01.200Z,72.16
2017-08-28T00:59:41.627Z,71.87
2017-08-28T01:00:22.177Z,72.06
2017-08-28T01:01:02.760Z,72.16
2017-08-28T01:01:43.107Z,72.25
2017-08-28T01:02:23.585Z,72.06
2017-08-28T01:03:04.784Z,71.67
2017-08-28T01:03:44.567Z,71.96
2017-08-28T01:04:25.062Z,72.06
2017-08-28T01:05:05.380Z,71.48
2017-08-28T01:05:45.836Z,71.48
2017-08-28T01:06:26.457Z,71.96
2017-08-28T01:07:06.788Z,71.77
2017-08-28T01:07:47.176Z,72.25
2017-08-28T01:08:27.671Z,72.54
2017-08-28T01:09:08.064Z,72.54
2017-08-28T01:09:48.500Z,72.44
2017-08-28T01:10:28.844Z,72.73
2017-08-28T01:11:09.266Z,72.54
2017-08-28T01:11:49.658Z,73.31
2017-08-28T01:12:30.063Z,73.18
2017-08-28T01:13:10.461Z,73.66
2017-08-28T01:13:50.930Z,73.66
2017-08-28T01:14:31.306Z,73.75
2017-08-28T01:15:11.686Z,73.46
2017-08-28T01:15:52.088Z,73.75
2017-08-28T01:16:32.555Z,73.56
2017-08-28T01:17:12.993Z,73.75
2017-08-28T01:17:53.415Z,73.56
2017-08-28T01:18:33.878Z,73.66
2017-08-28T01:19:14.224Z,73.75
2017-08-28T01:19:54.739Z,74.13
2017-08-28T01:20:35.166Z,74.04
2017-08-28T01:21:15.561Z,74.33
2017-08-28T01:21:56.127Z,74.81
2017-08-28T01:22:36.575Z,74.62
2017-08-28T01:23:16.949Z,74.9
2017-08-28T01:23:57.319Z,74.71
2017-08-28T01:24:37.710Z,74.71
2017-08-28T01:25:18.099Z,75.2
2017-08-28T01:25:58.531Z,75
2017-08-28T01:26:38.958Z,74.96
2017-08-28T01:27:19.427Z,75.54
2017-08-28T01:27:59.892Z,75.29
2017-08-28T01:28:40.316Z,75.48
2017-08-28T01:29:20.752Z,75.38
2017-08-28T01:30:01.147Z,75.38
2017-08-28T01:30:41.552Z,75.54
2017-08-28T01:31:21.980Z,75.48
2017-08-28T01:32:02.357Z,75.38
2017-08-28T01:32:42.736Z,75.29
2017-08-28T01:33:23.124Z,75.45
2017-08-28T01:34:03.535Z,75.73
2017-08-28T01:34:43.960Z,75.82
2017-08-28T01:35:24.318Z,75.82
2017-08-28T01:36:04.814Z,75.63
2017-08-28T01:36:45.288Z,75.63
2017-08-28T01:37:25.714Z,75.73
2017-08-28T01:38:06.159Z,75.57
2017-08-28T01:38:46.517Z,75.48
2017-08-28T01:39:26.863Z,75.48
2017-08-28T01:40:07.293Z,75.2
2017-08-28T01:40:47.743Z,74.9
2017-08-28T01:41:28.207Z,75.29
2017-08-28T01:42:08.728Z,74.52
2017-08-28T01:42:49.156Z,74.81
2017-08-28T01:43:29.605Z,75
2017-08-28T01:44:10.080Z,74.43
2017-08-28T01:44:50.475Z,74.33
2017-08-28T01:45:30.883Z,74.33
2017-08-28T01:46:11.327Z,74.43
2017-08-28T01:46:51.702Z,74.04
2017-08-28T01:47:32.145Z,74.33
2017-08-28T01:48:12.583Z,74.33
2017-08-28T01:48:53.018Z,73.94
2017-08-28T01:49:33.485Z,73.94
2017-08-28T01:50:13.875Z,74.04
2017-08-28T01:50:54.350Z,73.85
2017-08-28T01:51:34.714Z,73.75
2017-08-28T01:52:15.123Z,73.66
2017-08-28T01:52:55.594Z,73.56
2017-08-28T01:53:36.027Z,73.75
2017-08-28T01:54:16.472Z,73.79
2017-08-28T01:54:56.939Z,73.66
2017-08-28T01:55:37.417Z,73.79
2017-08-28T01:56:17.862Z,73.88
2017-08-28T01:56:58.230Z,73.79
2017-08-28T01:57:38.632Z,73.88
2017-08-28T01:58:19.097Z,73.46
2017-08-28T01:58:59.569Z,73.79
2017-08-28T01:59:39.952Z,73.66
2017-08-28T02:00:20.360Z,73.69
2017-08-28T02:01:00.770Z,73.56
2017-08-28T02:01:41.193Z,73.75
2017-08-28T02:02:21.636Z,73.56
2017-08-28T02:03:02.044Z,73.66
2017-08-28T02:03:42.400Z,73.37
2017-08-28T02:04:22.866Z,73.75
2017-08-28T02:05:03.266Z,73.69
2017-08-28T02:05:43.717Z,73.56
2017-08-28T02:06:24.114Z,73.66
2017-08-28T02:07:04.478Z,73.56
2017-08-28T02:07:45.019Z,73.46
2017-08-28T02:08:25.404Z,73.56
2017-08-28T02:09:05.820Z,74.04
2017-08-28T02:09:46.218Z,74.04
2017-08-28T02:10:26.653Z,73.94
2017-08-28T02:11:07.054Z,73.75
2017-08-28T02:11:47.610Z,73.94
2017-08-28T02:12:27.946Z,73.85
2017-08-28T02:13:08.389Z,73.85
2017-08-28T02:13:48.838Z,73.94
2017-08-28T02:14:29.271Z,73.94
2017-08-28T02:15:09.611Z,74.04
2017-08-28T02:15:50.045Z,74.33
2017-08-28T02:16:30.502Z,74.04
2017-08-28T02:17:10.850Z,74.04
2017-08-28T02:17:51.265Z,74.43
2017-08-28T02:18:31.658Z,74.33
2017-08-28T02:19:12.100Z,74.33
2017-08-28T02:19:52.470Z,74.52
2017-08-28T02:20:32.878Z,74.43
2017-08-28T02:21:13.413Z,74.43
2017-08-28T02:21:53.908Z,74.71
2017-08-28T02:22:34.393Z,74.81
2017-08-28T02:23:14.690Z,74.52
2017-08-28T02:23:55.203Z,74.9
2017-08-28T02:24:35.586Z,74.81
2017-08-28T02:25:15.985Z,74.9
2017-08-28T02:25:56.420Z,75.38
2017-08-28T02:26:36.797Z,75.67
2017-08-28T02:27:17.191Z,75.67
2017-08-28T02:27:57.604Z,75.87
2017-08-28T02:28:38.021Z,75.48
2017-08-28T02:29:18.398Z,75.57
2017-08-28T02:29:58.847Z,75.57
2017-08-28T02:30:39.278Z,75.57
2017-08-28T02:31:19.729Z,75.29
2017-08-28T02:32:00.060Z,75.29
2017-08-28T02:32:40.431Z,75.1
2017-08-28T02:33:20.875Z,75.1
2017-08-28T02:34:01.303Z,75.57
2017-08-28T02:34:41.683Z,75.38
2017-08-28T02:35:22.128Z,75.48
2017-08-28T02:36:02.511Z,75.57
2017-08-28T02:36:42.863Z,75.2
2017-08-28T02:37:23.374Z,75.48
2017-08-28T02:38:03.743Z,75.67
2017-08-28T02:38:44.210Z,75.87
2017-08-28T02:39:24.731Z,75.96
2017-08-28T02:40:05.119Z,76.73
2017-08-28T02:40:45.522Z,77.01
2017-08-28T02:41:25.952Z,76.54
2017-08-28T02:42:06.382Z,76.73
2017-08-28T02:42:46.804Z,76.92
2017-08-28T02:43:27.331Z,76.92
2017-08-28T02:44:07.690Z,76.44
2017-08-28T02:44:48.097Z,76.82
2017-08-28T02:45:28.463Z,76.73
2017-08-28T02:46:08.975Z,77.26
2017-08-28T02:46:49.405Z,77.17
2017-08-28T02:47:29.804Z,77.26
2017-08-28T02:48:10.136Z,77.36
2017-08-28T02:48:50.568Z,77.75
2017-08-28T02:49:31.026Z,77.56
2017-08-28T02:50:11.393Z,77.56
2017-08-28T02:52:19.334Z,77.08
2017-08-28T02:53:21.809Z,77.65
2017-08-28T02:54:01.791Z,77.75
2017-08-28T02:54:42.189Z,77.56
2017-08-28T02:55:22.697Z,77.65
2017-08-28T02:56:03.107Z,77.56
2017-08-28T02:56:43.429Z,77.56
2017-08-28T02:57:23.847Z,77.75
2017-08-28T02:58:04.296Z,77.17
2017-08-28T02:58:44.692Z,77.56
2017-08-28T02:59:25.128Z,77.65
2017-08-28T03:00:05.534Z,77.75
2017-08-28T03:00:45.960Z,77.65
2017-08-28T03:01:26.279Z,78.23
2017-08-28T03:02:06.774Z,77.94
2017-08-28T03:02:47.095Z,77.75
2017-08-28T03:03:27.462Z,77.94
2017-08-28T03:04:07.954Z,78.32
2017-08-28T03:04:48.401Z,78.13
2017-08-28T03:05:28.793Z,78.23
2017-08-28T03:06:09.275Z,78.13
2017-08-28T03:06:49.675Z,78.13
2017-08-28T03:07:30.132Z,78.23
2017-08-28T03:08:10.603Z,78.13
2017-08-28T03:08:51.035Z,78.03
2017-08-28T03:09:31.489Z,78.32
2017-08-28T03:10:11.897Z,78.23
2017-08-28T03:10:52.387Z,78.7
2017-08-28T03:11:32.810Z,78.7
2017-08-28T03:12:13.196Z,78.42
2017-08-28T03:12:53.774Z,78.61
2017-08-28T03:13:34.161Z,78.61
2017-08-28T03:14:14.574Z,78.8
2017-08-28T03:14:55.008Z,79.19
2017-08-28T03:15:35.472Z,78.9
2017-08-28T03:16:15.974Z,79.19
2017-08-28T03:16:56.329Z,79.09
2017-08-28T03:17:36.943Z,79.28
2017-08-28T03:18:17.410Z,79.14
2017-08-28T03:18:57.795Z,79.82
2017-08-28T03:19:38.218Z,79.67
2017-08-28T03:20:18.672Z,79.63
2017-08-28T03:20:59.113Z,79.82
2017-08-28T03:21:39.509Z,79.63
2017-08-28T03:22:19.942Z,80.2
2017-08-28T03:23:00.333Z,80.2
2017-08-28T03:23:40.729Z,80.3
2017-08-28T03:24:21.259Z,80.2
2017-08-28T03:25:01.582Z,80.11
2017-08-28T03:25:41.974Z,80.3
2017-08-28T03:26:22.379Z,79.91
2017-08-28T03:27:02.822Z,80.15
2017-08-28T03:27:43.186Z,80.05
2017-08-28T03:28:23.604Z,79.67
2017-08-28T03:29:04.030Z,80.05
2017-08-28T03:29:44.396Z,79.67
2017-08-28T03:30:24.791Z,79.91
2017-08-28T03:31:05.166Z,79.86
2017-08-28T03:31:45.582Z,79.47
2017-08-28T03:32:26.028Z,79.09
2017-08-28T03:34:28.104Z,78.99
2017-08-28T03:35:19.280Z,79.57
2017-08-28T03:35:59.693Z,78.8
2017-08-28T03:36:40.097Z,79.47
2017-08-28T03:37:20.532Z,79.67
2017-08-28T03:38:00.970Z,79.19
2017-08-28T03:38:41.405Z,79.09
2017-08-28T03:39:21.777Z,79.19
2017-08-28T03:40:02.187Z,79.19
2017-08-28T03:40:42.607Z,79.19
2017-08-28T03:41:23.170Z,79.47
2017-08-28T03:42:03.631Z,78.9
2017-08-28T03:42:44.027Z,79.09
2017-08-28T03:43:24.522Z,78.9
2017-08-28T03:44:05.092Z,79.57
2017-08-28T03:44:45.572Z,79.76
2017-08-28T03:45:26.007Z,79.76
2017-08-28T03:46:06.400Z,78.9
2017-08-28T03:46:46.846Z,78.9
2017-08-28T03:47:27.206Z,78.61
2017-08-28T03:48:07.643Z,79.47
2017-08-28T03:48:48.138Z,78.8
2017-08-28T03:49:28.583Z,79.09
2017-08-28T03:50:09.093Z,79.09
2017-08-28T03:50:49.467Z,79.28
2017-08-28T03:51:29.891Z,79.09
2017-08-28T03:52:10.397Z,79.57
2017-08-28T03:52:50.795Z,79.57
2017-08-28T03:53:31.256Z,79.28
2017-08-28T03:54:11.608Z,79.28
2017-08-28T03:54:51.952Z,78.61
2017-08-28T03:55:32.554Z,78.9
2017-08-28T03:56:13.029Z,79.57
2017-08-28T03:56:53.530Z,78.8
2017-08-28T03:57:33.894Z,79.67
2017-08-28T03:58:14.378Z,79.09
2017-08-28T03:58:54.720Z,79.38
2017-08-28T03:59:35.171Z,79.38
2017-08-28T04:00:15.581Z,79.38
2017-08-28T04:00:55.971Z,79.09
2017-08-28T04:01:36.337Z,78.9
2017-08-28T04:02:16.828Z,79.09
2017-08-28T04:02:57.235Z,79.28
2017-08-28T04:03:37.664Z,79.19
2017-08-28T04:04:18.052Z,79.47
2017-08-28T04:04:58.583Z,79.96
2017-08-28T04:05:38.926Z,78.8
2017-08-28T04:06:19.451Z,79.09
2017-08-28T04:07:00.007Z,79.19
2017-08-28T04:07:40.412Z,79.09
2017-08-28T04:08:20.830Z,79.19
2017-08-28T04:09:01.282Z,79.28
2017-08-28T04:09:41.676Z,79.19
2017-08-28T04:10:22.222Z,79.19
2017-08-28T04:11:02.617Z,78.9
2017-08-28T04:11:43.056Z,79.19
2017-08-28T04:12:23.428Z,79.09
2017-08-28T04:13:03.851Z,79.19
2017-08-28T04:13:44.208Z,79.09
2017-08-28T04:14:24.663Z,79.09
2017-08-28T04:15:05.088Z,79.19
2017-08-28T04:15:45.528Z,79.09
2017-08-28T04:16:25.890Z,79.47
2017-08-28T04:17:06.256Z,79.67
2017-08-28T04:17:46.675Z,80.15
2017-08-28T04:18:27.070Z,79.86
2017-08-28T04:19:07.453Z,80.05
2017-08-28T04:19:47.955Z,80.15
2017-08-28T04:20:28.366Z,79.67
2017-08-28T04:21:08.730Z,79.86
2017-08-28T04:21:49.169Z,80.34
2017-08-28T04:22:29.598Z,80.15
2017-08-28T04:23:10.076Z,80.24
2017-08-28T04:23:50.502Z,79.96
2017-08-28T04:24:30.958Z,80.05
2017-08-28T04:25:11.316Z,80.05
2017-08-28T04:25:51.779Z,80.24
2017-08-28T04:26:32.244Z,80.15
2017-08-28T04:27:12.581Z,80.82
2017-08-28T04:27:53.066Z,80.63
2017-08-28T04:28:33.424Z,80.63
2017-08-28T04:29:13.874Z,80.91
2017-08-28T04:29:54.442Z,80.91
2017-08-28T04:30:34.879Z,80.82
2017-08-28T04:31:15.276Z,80.87
2017-08-28T04:31:55.722Z,80.63
2017-08-28T04:32:36.099Z,80.78
2017-08-28T04:33:16.494Z,80.73
2017-08-28T04:33:56.942Z,80.82
2017-08-28T04:34:37.347Z,80.43
2017-08-28T04:35:17.807Z,80.63
2017-08-28T04:35:58.203Z,80.63
2017-08-28T04:36:38.702Z,80.82
2017-08-28T04:37:19.096Z,80.63
2017-08-28T04:37:59.496Z,80.63
2017-08-28T04:38:39.967Z,80.63
2017-08-28T04:39:20.386Z,81.01
2017-08-28T04:40:00.767Z,80.82
2017-08-28T04:40:41.170Z,81.1
2017-08-28T04:41:21.639Z,80.73
2017-08-28T04:42:02.007Z,80.82
2017-08-28T04:42:42.419Z,81.01
2017-08-28T04:43:22.894Z,80.63
2017-08-28T04:44:03.287Z,80.63
2017-08-28T04:44:43.713Z,80.63
2017-08-28T04:45:24.070Z,80.82
2017-08-28T04:46:04.513Z,80.82
2017-08-28T04:46:44.853Z,80.82
2017-08-28T04:47:25.320Z,80.91
2017-08-28T04:48:05.819Z,81.01
2017-08-28T04:48:46.261Z,81.01
2017-08-28T04:49:26.642Z,80.73
2017-08-28T04:50:07.201Z,80.63
2017-08-28T04:50:47.588Z,80.91
2017-08-28T04:51:27.991Z,80.91
2017-08-28T04:52:08.414Z,80.91
2017-08-28T04:52:48.828Z,80.82
2017-08-28T04:53:29.140Z,80.82
2017-08-28T04:54:09.603Z,81.01
2017-08-28T04:54:50.041Z,81.01
2017-08-28T04:55:30.438Z,80.53
2017-08-28T04:56:10.909Z,81.01
2017-08-28T04:56:51.292Z,80.91
2017-08-28T04:57:31.668Z,81.1
2017-08-28T04:58:12.113Z,80.63
2017-08-28T04:58:52.469Z,81.3
2017-08-28T04:59:32.894Z,80.87
2017-08-28T05:00:13.323Z,81.59
2017-08-28T05:00:53.671Z,81.3
2017-08-28T05:01:34.166Z,80.63
2017-08-28T05:02:14.538Z,81.2
2017-08-28T05:02:54.925Z,81.68
2017-08-28T05:03:35.349Z,81.3
2017-08-28T05:04:15.742Z,80.91
2017-08-28T05:04:56.104Z,80.82
2017-08-28T05:05:36.502Z,81.4
2017-08-28T05:06:16.947Z,80.82
2017-08-28T05:06:57.398Z,81.01
2017-08-28T05:07:37.825Z,81.1
2017-08-28T05:08:18.249Z,80.82
2017-08-28T05:08:58.666Z,80.82
2017-08-28T05:09:39.076Z,80.82
2017-08-28T05:10:19.503Z,80.63
2017-08-28T05:10:59.959Z,80.91
2017-08-28T05:11:40.375Z,80.43
2017-08-28T05:12:20.812Z,81.01
2017-08-28T05:13:01.198Z,80.82
2017-08-28T05:13:41.709Z,80.82
2017-08-28T05:14:22.276Z,81.01
2017-08-28T05:15:04.977Z,80.53
2017-08-28T05:15:45.454Z,80.43
2017-08-28T05:16:25.916Z,80.73
2017-08-28T05:17:06.319Z,80.73
2017-08-28T05:17:46.688Z,80.82
2017-08-28T05:18:27.139Z,80.34
2017-08-28T05:19:07.556Z,80.82
2017-08-28T05:19:48.127Z,80.63
2017-08-28T05:20:28.491Z,80.82
2017-08-28T05:21:08.893Z,80.82
2017-08-28T05:21:49.256Z,80.82
2017-08-28T05:22:30.468Z,80.43
2017-08-28T05:23:10.850Z,80.73
2017-08-28T05:23:51.255Z,80.63
2017-08-28T05:24:31.657Z,80.63
2017-08-28T05:25:12.044Z,80.63
2017-08-28T05:25:52.453Z,80.82
2017-08-28T05:26:32.900Z,80.15
2017-08-28T05:27:13.263Z,80.05
2017-08-28T05:27:53.688Z,80.09
2017-08-28T05:28:34.135Z,80.09
2017-08-28T05:29:14.830Z,79.61
2017-08-28T05:29:55.218Z,79.9
2017-08-28T05:30:35.659Z,79.99
2017-08-28T05:31:16.055Z,80.15
2017-08-28T05:31:56.683Z,80.09
2017-08-28T05:32:37.753Z,79.8
2017-08-28T05:33:17.525Z,79.71
2017-08-28T05:35:39.733Z,79.71
2017-08-28T05:36:39.430Z,79.8
2017-08-28T05:37:19.901Z,79.71
2017-08-28T05:38:00.233Z,79.22
2017-08-28T05:38:40.707Z,79.52
2017-08-28T05:39:21.144Z,79.22
2017-08-28T05:40:01.739Z,79.22
2017-08-28T05:40:42.208Z,79.22
2017-08-28T05:41:22.610Z,79.22
2017-08-28T05:42:03.010Z,79.42
2017-08-28T05:42:44.207Z,78.65
2017-08-28T05:43:23.842Z,78.45
2017-08-28T05:44:04.213Z,78.21
2017-08-28T05:44:44.639Z,78.36
2017-08-28T05:45:25.129Z,78.02
2017-08-28T05:46:05.518Z,78.11
2017-08-28T05:46:46.002Z,77.73
2017-08-28T05:47:26.457Z,76.96
2017-08-28T05:48:10.359Z,77.15
2017-08-28T05:48:50.942Z,76.67
2017-08-28T05:49:32.131Z,76.09
2017-08-28T05:50:12.505Z,75.94
2017-08-28T05:50:52.959Z,75.65
2017-08-28T05:51:33.307Z,74.88
2017-08-28T05:52:13.731Z,74.79
2017-08-28T05:52:54.120Z,74.79
2017-08-28T05:53:34.845Z,74.11
2017-08-28T05:54:15.366Z,74.25
2017-08-28T05:56:16.020Z,73.28
2017-08-28T05:56:55.705Z,72.71
2017-08-28T05:57:36.225Z,72.23
2017-08-28T05:58:16.638Z,72.61
2017-08-28T05:58:57.015Z,72.03
2017-08-28T05:59:37.473Z,72.32
2017-08-28T06:00:17.872Z,72.03
2017-08-28T06:00:58.446Z,72.32
2017-08-28T06:01:38.891Z,72.13
2017-08-28T06:02:19.298Z,71.84
2017-08-28T06:02:59.688Z,71.65
2017-08-28T06:03:40.204Z,71.84
2017-08-28T06:04:20.562Z,71.69
2017-08-28T06:05:00.938Z,71.65
2017-08-28T06:05:41.462Z,71.55
2017-08-28T06:06:21.819Z,71.75
2017-08-28T06:07:02.229Z,71.2
2017-08-28T06:07:42.541Z,71.4
2017-08-28T06:08:22.982Z,71.3
2017-08-28T06:09:03.408Z,70.15
2017-08-28T06:09:43.786Z,70.24
2017-08-28T06:10:24.208Z,70.05
2017-08-28T06:11:04.678Z,69.76
2017-08-28T06:11:45.076Z,69.85
2017-08-28T06:12:25.537Z,69.6
2017-08-28T06:13:05.859Z,69.41
2017-08-28T06:13:46.345Z,69.51
2017-08-28T06:14:26.831Z,68.77
2017-08-28T06:15:07.339Z,67.81
2017-08-28T06:15:47.664Z,67.61
2017-08-28T06:16:28.239Z,66.94
2017-08-28T06:17:08.703Z,66.75
2017-08-28T06:17:49.059Z,66.94
2017-08-28T06:18:29.502Z,66.39
2017-08-28T06:19:09.945Z,65.81
2017-08-28T06:19:51.992Z,65.72
2017-08-28T06:22:20.555Z,64.86
2017-08-28T06:23:03.606Z,64.66
2017-08-28T06:23:44.033Z,64.4
2017-08-28T06:24:24.548Z,63.92
2017-08-28T06:25:04.970Z,63.73
2017-08-28T06:25:45.378Z,63.63
2017-08-28T06:26:25.848Z,63.34
2017-08-28T06:27:07.081Z,63.24
2017-08-28T06:27:46.718Z,63.37
2017-08-28T06:28:27.139Z,62.89
2017-08-28T06:29:07.649Z,62.41
2017-08-28T06:29:48.204Z,62.02
2017-08-28T06:30:28.656Z,61.44
2017-08-28T06:31:09.096Z,61.54
2017-08-28T06:31:49.500Z,61.44
2017-08-28T06:32:29.980Z,61.44
2017-08-28T06:33:10.368Z,61.16
2017-08-28T06:33:50.871Z,60.77
2017-08-28T06:34:31.337Z,61.44
2017-08-28T06:35:11.738Z,61.35
2017-08-28T06:35:52.080Z,61.74
2017-08-28T06:36:32.555Z,61.74
2017-08-28T06:37:13.544Z,61.35
2017-08-28T06:37:53.996Z,61.38
2017-08-28T06:38:34.432Z,61.09
2017-08-28T06:39:14.794Z,60.99
2017-08-28T06:39:55.267Z,60.8
2017-08-28T06:40:35.631Z,60.31
2017-08-28T06:41:16.816Z,60.99
2017-08-28T06:41:57.163Z,61.06
2017-08-28T06:42:37.616Z,61.25
2017-08-28T06:43:18.004Z,61.35
2017-08-28T06:43:58.428Z,61.77
2017-08-28T06:44:38.802Z,60.99
2017-08-28T06:45:19.199Z,60.8
2017-08-28T06:45:59.624Z,60.89
2017-08-28T06:46:40.035Z,60.31
2017-08-28T06:47:20.425Z,59.74
2017-08-28T06:48:00.875Z,60.03
2017-08-28T06:48:41.222Z,60.03
2017-08-28T06:49:21.701Z,60.06
2017-08-28T06:50:02.274Z,59.64
2017-08-28T06:50:42.635Z,59.58
2017-08-28T06:51:23.019Z,59
2017-08-28T06:52:03.482Z,58.64
2017-08-28T06:52:43.991Z,58.73
2017-08-28T06:53:24.332Z,58.45
2017-08-28T06:54:04.801Z,58.35
2017-08-28T06:54:45.206Z,58.25
2017-08-28T06:55:25.640Z,58.06
2017-08-28T06:56:06.083Z,58.25
2017-08-28T06:56:46.502Z,58.25
2017-08-28T06:57:26.994Z,58.25
2017-08-28T06:58:07.413Z,58.25
2017-08-28T06:58:47.796Z,58.15
2017-08-28T06:59:28.291Z,58.64
2017-08-28T07:00:08.899Z,58.25
2017-08-28T07:00:49.361Z,58.25
2017-08-28T07:01:31.230Z,58.06
2017-08-28T07:02:13.165Z,58.45
2017-08-28T07:02:53.625Z,58.06
2017-08-28T07:03:34.058Z,57.48
2017-08-28T07:04:14.500Z,57.96
2017-08-28T07:04:54.841Z,58.15
2017-08-28T07:05:36.045Z,58.25
2017-08-28T07:06:16.530Z,57.87
2017-08-28T07:06:57.061Z,57.77
2017-08-28T07:07:37.483Z,57.67
2017-08-28T07:08:17.934Z,57.57
2017-08-28T07:08:58.288Z,57.21
2017-08-28T07:09:38.753Z,57.03
2017-08-28T07:10:19.223Z,57.12
2017-08-28T07:10:59.798Z,56.93
2017-08-28T07:11:41.147Z,57.21
2017-08-28T07:12:21.609Z,56.83
2017-08-28T07:13:02.354Z,56.83
2017-08-28T07:13:43.715Z,56.15
2017-08-28T07:14:25.176Z,56.63
2017-08-28T07:15:05.708Z,56.54
2017-08-28T07:15:46.119Z,55.96
2017-08-28T07:16:26.635Z,56.25
2017-08-28T07:17:07.508Z,55.96
2017-08-28T07:17:47.856Z,55.89
2017-08-28T07:18:30.839Z,56.15
2017-08-28T07:19:11.202Z,56.09
2017-08-28T07:19:51.684Z,56.25
2017-08-28T07:20:32.137Z,55.89
2017-08-28T07:21:12.536Z,55.89
2017-08-28T07:21:53.058Z,55.89
2017-08-28T07:22:33.638Z,55.6
2017-08-28T07:23:14.132Z,55.41
2017-08-28T07:23:54.476Z,54.75
2017-08-28T07:24:34.985Z,54.73
2017-08-28T07:25:15.359Z,55.15
2017-08-28T07:25:55.721Z,55.05
2017-08-28T07:26:36.169Z,54.95
2017-08-28T07:27:16.985Z,54.95
2017-08-28T07:27:58.796Z,54.47
2017-08-28T07:30:05.397Z,53.53
2017-08-28T07:31:03.376Z,53.81
2017-08-28T07:32:01.933Z,54.11
2017-08-28T07:33:04.048Z,53.43
2017-08-28T07:34:06.307Z,52.66
2017-08-28T07:35:00.685Z,52.58
2017-08-28T07:36:55.842Z,52.46
2017-08-28T07:37:38.039Z,53.23
2017-08-28T07:38:18.661Z,53.23
2017-08-28T07:38:59.254Z,52.95
2017-08-28T07:39:39.912Z,53.04
2017-08-28T07:40:20.725Z,52.95
2017-08-28T07:41:01.167Z,52.39
2017-08-28T07:41:41.871Z,51.74
2017-08-28T07:42:22.392Z,51.54
2017-08-28T07:43:03.327Z,51.13
2017-08-28T07:43:44.325Z,51.16
2017-08-28T07:44:24.861Z,50.96
2017-08-28T07:45:05.318Z,51.25
2017-08-28T07:45:46.913Z,51.16
2017-08-28T07:46:27.442Z,51.54
2017-08-28T07:47:07.823Z,51.06
2017-08-28T07:47:48.247Z,51.13
2017-08-28T07:48:28.830Z,51.13
2017-08-28T07:49:10.412Z,50.87
2017-08-28T07:49:51.707Z,50.74
2017-08-28T07:50:32.665Z,51.13
2017-08-28T07:51:13.629Z,51.62
2017-08-28T07:52:02.149Z,51.81
2017-08-28T07:52:42.655Z,51.81
2017-08-28T07:53:23.145Z,51.81
2017-08-28T07:54:04.015Z,51.9
2017-08-28T07:54:44.405Z,51.9
2017-08-28T07:55:24.801Z,51.54
2017-08-28T07:56:06.899Z,51.45
2017-08-28T07:58:31.834Z,50.96
2017-08-28T07:59:28.353Z,50.41
2017-08-28T08:00:08.861Z,49.92
2017-08-28T08:00:49.286Z,49.92
2017-08-28T08:01:29.967Z,49.44
2017-08-28T08:02:10.349Z,49.73
2017-08-28T08:02:51.686Z,49.82
2017-08-28T08:03:32.013Z,49.44
2017-08-28T08:04:13.677Z,49.34
2017-08-28T08:04:53.752Z,49.24
2017-08-28T08:05:37.042Z,49.07
2017-08-28T08:06:18.548Z,48.88
2017-08-28T08:06:58.384Z,48.88
2017-08-28T08:07:38.816Z,48.49
2017-08-28T08:08:19.204Z,48.3
2017-08-28T08:08:59.745Z,48.3
2017-08-28T08:09:40.156Z,48
2017-08-28T08:10:20.581Z,48
2017-08-28T08:11:00.960Z,48.32
2017-08-28T08:11:41.503Z,47.93
2017-08-28T08:12:21.861Z,47.55
2017-08-28T08:13:02.308Z,47.64
2017-08-28T08:13:42.665Z,47.35
2017-08-28T08:14:23.178Z,46.86
2017-08-28T08:15:03.684Z,47.35
2017-08-28T08:15:44.093Z,47.45
2017-08-28T08:16:24.484Z,48.03
2017-08-28T08:17:04.947Z,48
2017-08-28T08:17:45.322Z,48.22
2017-08-28T08:18:28.150Z,48.22
2017-08-28T08:19:09.696Z,47.74
2017-08-28T08:19:50.190Z,47.93
2017-08-28T08:20:30.700Z,47.35
2017-08-28T08:21:11.163Z,46.98
2017-08-28T08:21:51.723Z,47.18
2017-08-28T08:22:32.265Z,46.79
2017-08-28T08:23:12.597Z,47.28
2017-08-28T08:23:53.138Z,47.45
2017-08-28T08:24:33.893Z,47.18
2017-08-28T08:25:14.859Z,46.98
2017-08-28T08:25:55.461Z,47.28
2017-08-28T08:26:36.113Z,46.81
2017-08-28T08:27:18.685Z,46.81
2017-08-28T08:27:59.553Z,46.33
2017-08-28T08:28:40.163Z,46.23
2017-08-28T08:29:20.549Z,46.42
2017-08-28T08:30:01.504Z,47.01
2017-08-28T08:30:43.056Z,46.14
2017-08-28T08:31:23.725Z,46.04
2017-08-28T08:32:03.992Z,45.84
2017-08-28T08:32:44.581Z,46.42
2017-08-28T08:33:25.487Z,46.04
2017-08-28T08:34:05.902Z,46.04
2017-08-28T08:34:46.574Z,46.23
2017-08-28T08:35:27.385Z,45.87
2017-08-28T08:36:08.066Z,45.28
2017-08-28T08:36:48.311Z,45.09
2017-08-28T08:37:28.864Z,45.38
2017-08-28T08:38:09.516Z,45.57
2017-08-28T08:38:50.160Z,45.6
2017-08-28T08:39:30.557Z,44.53
2017-08-28T08:40:11.089Z,44.43
2017-08-28T08:40:51.438Z,44.24
2017-08-28T08:41:32.776Z,43.87
2017-08-28T08:42:13.274Z,43.19
2017-08-28T08:42:53.943Z,43.19
2017-08-28T08:43:34.643Z,43.96
2017-08-28T08:44:15.606Z,43.75
2017-08-28T08:44:56.156Z,44.24
2017-08-28T08:45:38.253Z,44.43
2017-08-28T08:46:18.954Z,44.7
2017-08-28T08:47:00.016Z,44.89
2017-08-28T08:47:50.762Z,44.89
2017-08-28T08:58:16.049Z,42.82
2017-08-28T09:00:11.755Z,41.96
2017-08-28T09:01:06.281Z,41.89
2017-08-28T09:01:46.863Z,41.19
2017-08-28T09:02:27.233Z,41.38
2017-08-28T09:03:07.744Z,41.96
2017-08-28T09:03:48.269Z,41.77
2017-08-28T09:04:29.223Z,41.96
2017-08-28T09:05:10.001Z,41.96
2017-08-28T09:05:51.058Z,41.67
2017-08-28T09:06:31.796Z,42.16
2017-08-28T09:07:12.155Z,42.06
2017-08-28T09:07:53.459Z,42.63
2017-08-28T09:08:34.186Z,42.91
2017-08-28T09:09:14.900Z,43.11
2017-08-28T09:09:56.514Z,42.99